Terminal Aerodrome Forecast
Issued by NWS Blacksburg, VA

Home | Current Version | Previous Version | Text Only | Print | Product List | Glossary On
Versions: 1 2 3 4 5 6 7 8 9 10 11 12 13 14 15 16 17 18 19 20 21 22 23 24 25 26 27 28 29 30
000
FTUS41 KRNK 192325
TAFBLF
TAF
KBLF 192325Z 2000/2024 31007KT P6SM SCT030 BKN100
     FM201000 12003KT P6SM -SN SCT015 BKN035
     FM201300 17003KT 6SM -SN SCT011 OVC020
     FM201900 27007KT 4SM -RASN OVC025=

USA.gov is the U.S. government's official web portal to all federal, state and local government web resources and services.